Time;durP1;ratioP1;P1;durP2;ratioP2;P2;SDS_P1;SDS_P2;PMS_P1;PMS_P2;Temp;Humidity;BMP_temperature;BMP_pressure;BME280_temperature;BME280_humidity;BME280_pressure;Samples;Min_cycle;Max_cycle;Signal;HPM_P1;HPM_P2
2023/11/21 00:00:12;;;;;;;14.13;11.88;;;;;;;;;;12883163;22;20023;-68
2023/11/21 00:05:10;;;;;;;18.67;12.75;;;;;;;;;;12883257;22;20069;-68
2023/11/21 00:10:08;;;;;;;13.82;11.57;;;;;;;;;;12883448;22;20027;-69
2023/11/21 00:15:10;;;;;;;12.02;10.38;;;;;;;;;;12882696;22;20030;-69
2023/11/21 00:20:07;;;;;;;11.73;10.52;;;;;;;;;;12883503;22;20031;-67
2023/11/21 00:25:03;;;;;;;13.55;11.93;;;;;;;;;;12882873;22;20065;-67
2023/11/21 00:30:00;;;;;;;16.23;12.95;;;;;;;;;;12882950;22;20019;-68
2023/11/21 00:34:56;;;;;;;16.45;12.45;;;;;;;;;;12881716;22;20027;-67
2023/11/21 00:39:53;;;;;;;16.98;14.35;;;;;;;;;;12881419;22;20058;-69
2023/11/21 00:44:49;;;;;;;18.88;14.93;;;;;;;;;;12882960;22;20023;-66
2023/11/21 00:49:45;;;;;;;18.40;13.40;;;;;;;;;;12875875;22;20018;-66
2023/11/21 00:54:42;;;;;;;20.85;15.60;;;;;;;;;;12882942;22;20084;-66
2023/11/21 00:59:38;;;;;;;21.75;16.17;;;;;;;;;;12881976;22;20353;-66
2023/11/21 01:04:35;;;;;;;22.73;16.67;;;;;;;;;;12882749;22;20482;-67
2023/11/21 01:09:31;;;;;;;28.15;18.42;;;;;;;;;;12880141;22;20107;-68
2023/11/21 01:14:27;;;;;;;22.85;17.70;;;;;;;;;;12881118;22;20975;-68
2023/11/21 01:19:24;;;;;;;27.17;19.00;;;;;;;;;;12878941;22;20019;-68
2023/11/21 01:24:20;;;;;;;21.80;16.00;;;;;;;;;;12879443;22;20018;-68
2023/11/21 01:29:17;;;;;;;23.08;15.73;;;;;;;;;;12884837;22;20031;-67
2023/11/21 01:34:14;;;;;;;22.38;15.52;;;;;;;;;;12885639;22;20391;-67
2023/11/21 01:39:15;;;;;;;19.95;15.18;;;;;;;;;;12888575;22;20030;-67
2023/11/21 01:44:13;;;;;;;18.75;14.32;;;;;;;;;;12888635;22;20076;-67
2023/11/21 01:49:10;;;;;;;22.80;14.77;;;;;;;;;;12887633;22;20402;-67
2023/11/21 01:54:07;;;;;;;13.57;12.13;;;;;;;;;;12886870;22;20109;-68
2023/11/21 01:59:16;;;;;;;13.43;11.85;;;;;;;;;;12881384;22;20033;-68
2023/11/21 02:04:13;;;;;;;15.52;12.60;;;;;;;;;;12887577;22;20027;-68
2023/11/21 02:09:10;;;;;;;16.00;12.52;;;;;;;;;;12884562;22;20509;-68
2023/11/21 02:14:08;;;;;;;15.30;11.82;;;;;;;;;;12888593;22;20023;-68
2023/11/21 02:19:10;;;;;;;15.80;12.75;;;;;;;;;;12888166;22;20030;-68
2023/11/21 02:24:06;;;;;;;18.30;12.05;;;;;;;;;;12887006;22;20015;-68
2023/11/21 02:34:27;;;;;;;13.63;11.52;;;;;;;;;;12879366;22;20042;-68
2023/11/21 02:39:24;;;;;;;12.85;11.20;;;;;;;;;;12886774;22;20027;-66
2023/11/21 02:44:20;;;;;;;12.07;10.60;;;;;;;;;;12886680;22;20459;-66
2023/11/21 02:49:16;;;;;;;14.02;11.48;;;;;;;;;;12886507;22;20391;-66
2023/11/21 02:54:13;;;;;;;15.02;11.40;;;;;;;;;;12887044;22;20076;-67
2023/11/21 02:59:10;;;;;;;14.98;12.18;;;;;;;;;;12887434;22;20023;-67
2023/11/21 03:04:07;;;;;;;12.60;11.00;;;;;;;;;;12881643;22;20025;-67
2023/11/21 03:09:03;;;;;;;12.43;10.93;;;;;;;;;;12883292;22;20106;-67
2023/11/21 03:13:59;;;;;;;13.45;11.90;;;;;;;;;;12885334;22;20029;-67
2023/11/21 03:18:56;;;;;;;14.15;11.27;;;;;;;;;;12885678;22;20403;-68
2023/11/21 03:23:52;;;;;;;14.75;11.77;;;;;;;;;;12880742;22;20126;-67
2023/11/21 03:28:49;;;;;;;16.85;11.45;;;;;;;;;;12886142;22;20080;-67
2023/11/21 03:33:45;;;;;;;16.00;11.38;;;;;;;;;;12885374;22;20023;-68
2023/11/21 03:38:42;;;;;;;18.58;11.90;;;;;;;;;;12886245;22;20029;-68
2023/11/21 03:43:38;;;;;;;13.27;11.10;;;;;;;;;;12885599;22;20023;-67
2023/11/21 03:48:35;;;;;;;14.75;11.02;;;;;;;;;;12885854;22;20029;-67
2023/11/21 03:53:31;;;;;;;13.73;10.90;;;;;;;;;;12885338;22;20663;-67
2023/11/21 03:58:28;;;;;;;14.65;11.38;;;;;;;;;;12884786;22;20027;-67
2023/11/21 04:03:24;;;;;;;13.75;11.40;;;;;;;;;;12884290;22;20424;-66
2023/11/21 04:08:20;;;;;;;14.52;12.88;;;;;;;;;;12879274;22;20634;-67
2023/11/21 04:13:17;;;;;;;14.07;10.93;;;;;;;;;;12884686;22;20246;-67
2023/11/21 04:18:14;;;;;;;16.33;12.40;;;;;;;;;;12883206;22;20030;-67
2023/11/21 04:23:10;;;;;;;17.25;13.23;;;;;;;;;;12878851;22;20025;-67
2023/11/21 04:28:06;;;;;;;14.32;12.02;;;;;;;;;;12883034;22;20015;-69
2023/11/21 04:33:03;;;;;;;15.38;12.57;;;;;;;;;;12883362;22;20026;-68
2023/11/21 04:37:59;;;;;;;14.20;12.55;;;;;;;;;;12884689;22;20057;-68
2023/11/21 04:42:57;;;;;;;15.07;12.82;;;;;;;;;;12882345;22;20023;-69
2023/11/21 04:47:53;;;;;;;13.95;11.77;;;;;;;;;;12881293;22;20019;-68
2023/11/21 04:52:49;;;;;;;17.33;13.45;;;;;;;;;;12884844;22;20030;-70
2023/11/21 04:57:47;;;;;;;16.02;13.40;;;;;;;;;;12884554;22;20061;-70
2023/11/21 05:02:44;;;;;;;15.10;12.48;;;;;;;;;;12868005;22;20113;-71
2023/11/21 05:07:41;;;;;;;13.85;12.35;;;;;;;;;;12878981;22;20144;-70
2023/11/21 05:12:38;;;;;;;18.90;12.88;;;;;;;;;;12872620;22;20672;-70
2023/11/21 05:17:34;;;;;;;15.13;13.30;;;;;;;;;;12880448;22;20467;-70
2023/11/21 05:22:31;;;;;;;14.20;12.43;;;;;;;;;;12881361;22;20026;-71
2023/11/21 05:27:28;;;;;;;14.63;13.02;;;;;;;;;;12882914;22;20029;-71
2023/11/21 05:32:24;;;;;;;13.98;12.55;;;;;;;;;;12879825;22;20023;-71
2023/11/21 05:37:21;;;;;;;14.85;12.45;;;;;;;;;;12880705;22;20094;-71
2023/11/21 05:42:17;;;;;;;14.77;13.15;;;;;;;;;;12873065;22;20114;-71
2023/11/21 05:47:14;;;;;;;17.50;13.25;;;;;;;;;;12879335;22;20468;-72
2023/11/21 05:52:11;;;;;;;14.63;12.88;;;;;;;;;;12879386;22;20468;-72
2023/11/21 05:57:07;;;;;;;14.75;13.13;;;;;;;;;;12884382;22;20023;-72
2023/11/21 06:02:04;;;;;;;14.95;13.35;;;;;;;;;;12883528;22;20615;-72
2023/11/21 06:07:01;;;;;;;15.00;13.25;;;;;;;;;;12884831;22;20143;-72
2023/11/21 06:11:58;;;;;;;16.90;14.40;;;;;;;;;;12883463;22;20064;-72
2023/11/21 06:16:56;;;;;;;16.90;14.45;;;;;;;;;;12884092;22;20018;-73
2023/11/21 06:21:52;;;;;;;16.33;13.63;;;;;;;;;;12885096;22;20015;-72
2023/11/21 06:26:50;;;;;;;17.05;14.55;;;;;;;;;;12882857;22;20023;-72
2023/11/21 06:31:47;;;;;;;17.25;14.25;;;;;;;;;;12881862;22;20052;-72
2023/11/21 06:36:43;;;;;;;16.33;14.63;;;;;;;;;;12887205;22;20467;-71
2023/11/21 06:41:39;;;;;;;14.30;12.80;;;;;;;;;;12887082;22;20464;-72
2023/11/21 06:46:36;;;;;;;17.08;13.38;;;;;;;;;;12887004;22;20026;-72
2023/11/21 06:51:32;;;;;;;15.60;12.75;;;;;;;;;;12887606;22;20811;-72
2023/11/21 06:56:29;;;;;;;17.38;13.93;;;;;;;;;;12887542;22;20465;-72
2023/11/21 07:01:25;;;;;;;15.77;14.02;;;;;;;;;;12885888;22;20031;-71
2023/11/21 07:06:21;;;;;;;15.63;14.13;;;;;;;;;;12887826;22;20019;-73
2023/11/21 07:11:18;;;;;;;17.60;13.52;;;;;;;;;;12886636;22;20097;-72
2023/11/21 07:16:15;;;;;;;14.30;12.80;;;;;;;;;;12887718;22;20022;-72
2023/11/21 07:21:12;;;;;;;15.77;13.52;;;;;;;;;;12885323;22;20406;-72
2023/11/21 07:26:10;;;;;;;17.48;13.35;;;;;;;;;;12886482;22;20023;-72
2023/11/21 07:31:07;;;;;;;15.88;13.90;;;;;;;;;;12880402;22;20030;-72
2023/11/21 07:36:03;;;;;;;14.90;13.30;;;;;;;;;;12885125;22;20633;-72
2023/11/21 07:41:01;;;;;;;14.68;12.73;;;;;;;;;;12879028;22;20048;-72
2023/11/21 07:45:57;;;;;;;14.35;12.85;;;;;;;;;;12886542;22;20045;-72
2023/11/21 07:50:54;;;;;;;13.90;12.50;;;;;;;;;;12886513;22;20460;-72
2023/11/21 07:55:51;;;;;;;14.65;12.32;;;;;;;;;;12886243;22;20529;-72
2023/11/21 08:00:47;;;;;;;15.00;12.88;;;;;;;;;;12885203;22;20486;-72
2023/11/21 08:05:44;;;;;;;13.48;12.10;;;;;;;;;;12885931;22;20019;-72
2023/11/21 08:10:57;;;;;;;13.27;11.90;;;;;;;;;;12885326;22;20038;-72
2023/11/21 08:15:54;;;;;;;14.45;11.63;;;;;;;;;;12881897;22;20022;-72
2023/11/21 08:20:50;;;;;;;12.88;10.98;;;;;;;;;;12883920;22;20015;-71
2023/11/21 08:25:46;;;;;;;12.20;10.93;;;;;;;;;;12884927;22;20368;-72
2023/11/21 08:30:43;;;;;;;12.10;10.15;;;;;;;;;;12885055;22;20029;-72
2023/11/21 08:35:39;;;;;;;13.65;9.55;;;;;;;;;;12886612;22;20033;-71
2023/11/21 08:40:35;;;;;;;10.32;9.15;;;;;;;;;;12885779;22;20026;-71
2023/11/21 08:45:34;;;;;;;11.40;10.20;;;;;;;;;;12857878;22;20332;-72
2023/11/21 08:50:30;;;;;;;11.02;9.82;;;;;;;;;;12885941;22;20076;-72
2023/11/21 08:55:27;;;;;;;10.05;8.98;;;;;;;;;;12880276;22;20025;-71
2023/11/21 09:00:24;;;;;;;10.27;9.18;;;;;;;;;;12885721;22;20023;-72
2023/11/21 09:05:20;;;;;;;10.82;9.82;;;;;;;;;;12884648;22;20088;-71
2023/11/21 09:10:17;;;;;;;11.40;10.20;;;;;;;;;;12884874;22;20030;-72
2023/11/21 09:15:14;;;;;;;9.27;8.43;;;;;;;;;;12885721;22;20023;-72
2023/11/21 09:20:11;;;;;;;9.77;8.77;;;;;;;;;;12857238;22;20022;-71
2023/11/21 09:25:08;;;;;;;10.57;9.52;;;;;;;;;;12857686;22;20091;-72
2023/11/21 09:30:05;;;;;;;14.15;9.05;;;;;;;;;;12885476;22;20094;-72
2023/11/21 09:35:02;;;;;;;9.57;8.57;;;;;;;;;;12885853;22;20100;-72
2023/11/21 09:39:58;;;;;;;12.27;8.50;;;;;;;;;;12885881;22;20338;-71
2023/11/21 09:45:05;;;;;;;9.90;7.40;;;;;;;;;;12884657;22;20022;-71
2023/11/21 09:50:02;;;;;;;7.90;7.10;;;;;;;;;;12883647;22;20033;-71
2023/11/21 09:55:00;;;;;;;8.40;7.47;;;;;;;;;;12886559;22;20023;-72
2023/11/21 10:00:00;;;;;;;8.77;7.88;;;;;;;;;;12882630;22;20333;-72
2023/11/21 10:04:59;;;;;;;9.60;7.35;;;;;;;;;;12889453;22;20637;-72
2023/11/21 10:09:57;;;;;;;10.27;7.43;;;;;;;;;;12888068;22;20023;-71
2023/11/21 10:14:54;;;;;;;8.35;7.50;;;;;;;;;;12888409;22;20031;-71
2023/11/21 10:19:50;;;;;;;8.82;7.28;;;;;;;;;;12888605;22;20026;-72
2023/11/21 10:24:47;;;;;;;11.57;7.50;;;;;;;;;;12860382;22;20098;-72
2023/11/21 10:29:49;;;;;;;;;;;;;;;;;;12888896;22;20430;-72
2023/11/21 10:34:55;;;;;;;8.30;6.53;;;;;;;;;;12888221;22;19968;-72
2023/11/21 10:39:56;;;;;;;7.85;5.95;;;;;;;;;;12886642;22;20034;-72
2023/11/21 10:44:53;;;;;;;6.70;6.03;;;;;;;;;;12887431;22;20023;-71
2023/11/21 10:49:49;;;;;;;9.57;6.82;;;;;;;;;;12887233;22;20073;-72
2023/11/21 10:54:46;;;;;;;7.90;5.85;;;;;;;;;;12887412;22;20102;-72
2023/11/21 10:59:45;;;;;;;7.07;5.75;;;;;;;;;;12887269;22;20083;-71
2023/11/21 11:04:42;;;;;;;6.50;5.70;;;;;;;;;;12887798;22;20045;-72
2023/11/21 11:09:38;;;;;;;9.90;6.15;;;;;;;;;;12886235;22;20054;-72
2023/11/21 11:14:35;;;;;;;11.80;6.15;;;;;;;;;;12886542;22;20027;-72
2023/11/21 11:19:32;;;;;;;6.68;6.05;;;;;;;;;;12886144;22;20022;-73
2023/11/21 11:24:47;;;;;;;10.88;6.35;;;;;;;;;;12884373;22;20048;-74
2023/11/21 11:29:53;;;;;;;6.43;5.70;;;;;;;;;;12886471;22;20026;-74
2023/11/21 11:34:52;;;;;;;7.05;5.43;;;;;;;;;;12887186;22;20031;-74
2023/11/21 11:39:49;;;;;;;7.13;5.68;;;;;;;;;;12886239;22;20093;-71
2023/11/21 11:44:54;;;;;;;10.15;5.38;;;;;;;;;;12887200;22;20050;-73
2023/11/21 11:50:03;;;;;;;7.15;5.18;;;;;;;;;;12886308;22;20061;-74
2023/11/21 11:55:01;;;;;;;6.95;5.68;;;;;;;;;;12887642;22;20189;-71
2023/11/21 12:00:26;;;;;;;6.10;5.22;;;;;;;;;;12886522;22;20026;-74
2023/11/21 12:05:23;;;;;;;8.75;6.10;;;;;;;;;;12836876;22;20026;-74
2023/11/21 12:10:26;;;;;;;10.35;5.93;;;;;;;;;;12883303;22;20019;-74
2023/11/21 12:15:23;;;;;;;6.35;5.63;;;;;;;;;;12886436;22;20508;-72
2023/11/21 12:20:21;;;;;;;9.20;5.97;;;;;;;;;;12880858;22;20050;-75
2023/11/21 12:25:21;;;;;;;7.63;5.32;;;;;;;;;;12886218;22;20041;-74
2023/11/21 12:30:21;;;;;;;6.57;5.95;;;;;;;;;;12886577;22;20072;-74
2023/11/21 12:35:21;;;;;;;6.72;5.63;;;;;;;;;;12887034;22;20023;-74
2023/11/21 12:40:19;;;;;;;6.18;5.55;;;;;;;;;;12883445;22;20136;-74
2023/11/21 12:45:15;;;;;;;8.52;5.55;;;;;;;;;;12886410;22;20098;-74
2023/11/21 12:50:14;;;;;;;9.45;5.47;;;;;;;;;;12886520;22;20022;-74
2023/11/21 12:55:14;;;;;;;7.82;5.22;;;;;;;;;;12886778;22;20101;-74
2023/11/21 13:00:27;;;;;;;5.88;5.32;;;;;;;;;;12885731;22;20027;-74
2023/11/21 13:05:26;;;;;;;6.82;5.60;;;;;;;;;;12885050;22;20022;-74
2023/11/21 13:10:25;;;;;;;7.40;5.47;;;;;;;;;;12884857;22;20030;-74
2023/11/21 13:15:23;;;;;;;6.82;5.82;;;;;;;;;;12885764;22;20826;-74
2023/11/21 13:20:20;;;;;;;10.38;5.50;;;;;;;;;;12884291;22;20073;-74
2023/11/21 13:25:19;;;;;;;7.90;5.80;;;;;;;;;;12880298;22;20022;-74
2023/11/21 13:30:16;;;;;;;8.50;5.90;;;;;;;;;;12885194;22;20712;-73
2023/11/21 13:35:20;;;;;;;7.65;6.60;;;;;;;;;;12884724;22;20037;-74
2023/11/21 13:40:22;;;;;;;8.65;6.00;;;;;;;;;;12885250;22;20470;-74
2023/11/21 13:45:20;;;;;;;6.60;5.93;;;;;;;;;;12885648;22;20015;-74
2023/11/21 13:50:22;;;;;;;7.18;6.00;;;;;;;;;;12884612;22;20019;-72
2023/11/21 13:55:24;;;;;;;7.43;5.68;;;;;;;;;;12885801;22;20355;-74
2023/11/21 14:05:35;;;;;;;6.88;5.47;;;;;;;;;;12885775;22;20023;-74
2023/11/21 14:10:39;;;;;;;6.50;5.90;;;;;;;;;;12884841;22;20045;-74
2023/11/21 14:15:43;;;;;;;7.93;5.70;;;;;;;;;;12884976;22;20143;-74
2023/11/21 14:20:42;;;;;;;6.75;6.05;;;;;;;;;;12885375;22;20026;-72
2023/11/21 14:25:39;;;;;;;7.35;6.22;;;;;;;;;;12884095;22;20406;-72
2023/11/21 14:30:36;;;;;;;8.98;5.75;;;;;;;;;;12884496;22;20092;-72
2023/11/21 14:35:33;;;;;;;6.35;5.65;;;;;;;;;;12884538;22;20406;-72
2023/11/21 14:40:32;;;;;;;8.30;5.90;;;;;;;;;;12878019;22;20026;-73
2023/11/21 14:45:29;;;;;;;5.72;5.20;;;;;;;;;;12887697;22;20456;-72
2023/11/21 15:00:44;;;;;;;8.38;5.72;;;;;;;;;;12839020;22;19920;-72
2023/11/21 15:05:41;;;;;;;6.20;5.40;;;;;;;;;;12861722;22;20047;-72
2023/11/21 15:10:49;;;;;;;7.45;5.47;;;;;;;;;;12887877;22;20022;-71
2023/11/21 15:15:46;;;;;;;7.05;6.18;;;;;;;;;;12887654;22;20023;-72
2023/11/21 15:20:44;;;;;;;7.13;5.95;;;;;;;;;;12887287;22;20018;-72
2023/11/21 15:25:40;;;;;;;5.80;5.25;;;;;;;;;;12888440;22;20027;-72
2023/11/21 15:30:37;;;;;;;7.22;6.25;;;;;;;;;;12886963;22;20015;-72
2023/11/21 15:35:37;;;;;;;6.90;5.90;;;;;;;;;;12860139;22;20026;-72
2023/11/21 15:40:34;;;;;;;7.25;5.88;;;;;;;;;;12887123;22;20486;-72
2023/11/21 15:45:30;;;;;;;8.80;6.03;;;;;;;;;;12880749;22;20022;-73
2023/11/21 15:50:26;;;;;;;6.90;6.20;;;;;;;;;;12885483;22;20085;-72
2023/11/21 15:55:23;;;;;;;6.25;5.70;;;;;;;;;;12859210;22;20081;-72
2023/11/21 16:00:21;;;;;;;7.38;6.20;;;;;;;;;;12884555;22;20045;-72
2023/11/21 16:05:18;;;;;;;7.13;6.28;;;;;;;;;;12886864;22;20014;-72
2023/11/21 16:10:15;;;;;;;7.65;6.93;;;;;;;;;;12886082;22;20423;-72
2023/11/21 16:15:12;;;;;;;7.13;6.28;;;;;;;;;;12884521;22;20076;-72
2023/11/21 16:20:14;;;;;;;7.90;6.28;;;;;;;;;;12881148;22;20027;-72
2023/11/21 16:25:13;;;;;;;7.13;6.20;;;;;;;;;;12885935;22;20096;-72
2023/11/21 16:30:11;;;;;;;7.78;6.95;;;;;;;;;;12884671;22;20456;-71
2023/11/21 16:35:09;;;;;;;12.57;6.65;;;;;;;;;;12881811;22;20026;-73
2023/11/21 16:40:08;;;;;;;8.15;7.05;;;;;;;;;;12881310;22;20022;-72
2023/11/21 16:45:05;;;;;;;8.02;6.95;;;;;;;;;;12879022;22;20109;-72
2023/11/21 16:50:03;;;;;;;9.07;6.82;;;;;;;;;;12874697;22;20026;-72
2023/11/21 16:54:59;;;;;;;7.88;6.50;;;;;;;;;;12882145;22;20069;-73
2023/11/21 16:59:56;;;;;;;7.68;6.53;;;;;;;;;;12883066;22;20045;-73
2023/11/21 17:04:53;;;;;;;9.48;6.43;;;;;;;;;;12882618;22;20019;-73
2023/11/21 17:09:49;;;;;;;8.50;6.60;;;;;;;;;;12882936;22;20337;-72
2023/11/21 17:14:48;;;;;;;6.60;5.85;;;;;;;;;;12881606;22;20392;-72
2023/11/21 17:19:44;;;;;;;6.97;5.35;;;;;;;;;;12882335;22;20094;-73
2023/11/21 17:24:43;;;;;;;6.18;4.80;;;;;;;;;;12882394;22;20023;-74
2023/11/21 17:29:39;;;;;;;8.07;5.38;;;;;;;;;;12879229;22;20088;-72
2023/11/21 17:34:35;;;;;;;6.20;5.20;;;;;;;;;;12853149;22;20030;-73
2023/11/21 17:39:32;;;;;;;7.78;5.25;;;;;;;;;;12879856;22;20023;-73
2023/11/21 17:44:28;;;;;;;6.82;5.25;;;;;;;;;;12879956;22;20026;-73
2023/11/21 17:49:25;;;;;;;6.57;5.07;;;;;;;;;;12879006;22;20088;-73
2023/11/21 17:54:23;;;;;;;5.80;4.78;;;;;;;;;;12878330;22;20031;-73
2023/11/21 17:59:20;;;;;;;7.70;5.20;;;;;;;;;;12879926;22;20027;-72
2023/11/21 18:04:16;;;;;;;5.63;4.88;;;;;;;;;;12880313;22;20018;-72
2023/11/21 18:09:15;;;;;;;6.18;5.32;;;;;;;;;;12852836;22;20034;-73
2023/11/21 18:14:11;;;;;;;6.75;4.68;;;;;;;;;;12880163;22;20027;-73
2023/11/21 18:19:09;;;;;;;5.70;4.63;;;;;;;;;;12885499;22;20667;-73
2023/11/21 18:24:07;;;;;;;4.95;4.43;;;;;;;;;;12887017;22;20023;-73
2023/11/21 18:29:03;;;;;;;5.90;4.80;;;;;;;;;;12887974;22;20041;-72
2023/11/21 18:34:00;;;;;;;5.97;4.78;;;;;;;;;;12884989;22;20023;-74
2023/11/21 18:38:56;;;;;;;5.50;4.78;;;;;;;;;;12858380;22;20080;-72
2023/11/21 18:43:53;;;;;;;6.95;5.07;;;;;;;;;;12886164;22;20026;-73
2023/11/21 18:48:51;;;;;;;7.57;4.25;;;;;;;;;;12886026;22;20026;-73
2023/11/21 18:53:48;;;;;;;5.78;4.82;;;;;;;;;;12879235;22;20019;-73
2023/11/21 18:58:44;;;;;;;5.75;4.80;;;;;;;;;;12884831;22;20023;-73
2023/11/21 19:03:44;;;;;;;8.13;5.30;;;;;;;;;;12818713;22;20492;-73
2023/11/21 19:08:45;;;;;;;6.15;5.25;;;;;;;;;;12820859;22;20057;-74
2023/11/21 19:13:43;;;;;;;7.63;5.35;;;;;;;;;;12875167;22;20026;-73
2023/11/21 19:18:43;;;;;;;6.20;5.00;;;;;;;;;;12885120;22;20498;-73
2023/11/21 19:23:39;;;;;;;6.32;5.10;;;;;;;;;;12883573;22;20363;-73
2023/11/21 19:28:42;;;;;;;6.47;4.80;;;;;;;;;;12884338;22;20027;-73
2023/11/21 19:33:39;;;;;;;9.13;5.50;;;;;;;;;;12884698;22;20619;-73
2023/11/21 19:38:35;;;;;;;6.47;4.93;;;;;;;;;;12885563;22;20053;-73
2023/11/21 19:43:32;;;;;;;5.72;4.57;;;;;;;;;;12886250;22;20031;-73
2023/11/21 19:48:28;;;;;;;6.10;5.13;;;;;;;;;;12885143;22;20459;-73
2023/11/21 19:53:24;;;;;;;6.63;5.63;;;;;;;;;;12879413;22;20031;-73
2023/11/21 19:58:21;;;;;;;6.85;5.10;;;;;;;;;;12858291;22;20093;-73
2023/11/21 20:03:51;;;;;;;6.53;5.78;;;;;;;;;;12838997;22;20499;-73
2023/11/21 20:09:13;;;;;;;7.00;5.13;;;;;;;;;;12796904;22;20061;-73
2023/11/21 20:19:48;;;;;;;5.45;4.43;;;;;;;;;;12881469;22;20059;-73
2023/11/21 20:25:10;;;;;;;8.73;5.18;;;;;;;;;;12884968;22;20537;-73
2023/11/21 20:30:27;;;;;;;8.55;5.40;;;;;;;;;;12839550;22;20387;-73
2023/11/21 20:35:24;;;;;;;5.43;4.75;;;;;;;;;;12868788;22;20098;-72
2023/11/21 20:40:47;;;;;;;5.15;4.38;;;;;;;;;;12868828;22;20016;-73
2023/11/21 20:51:31;;;;;;;5.47;4.60;;;;;;;;;;12706511;22;20460;-72
2023/11/21 20:56:29;;;;;;;7.20;4.88;;;;;;;;;;12852992;22;20019;-69
2023/11/21 21:01:25;;;;;;;7.85;4.70;;;;;;;;;;12881077;22;20365;-71
2023/11/21 21:06:21;;;;;;;5.43;4.25;;;;;;;;;;12881080;22;20019;-71
2023/11/21 21:11:19;;;;;;;4.93;4.25;;;;;;;;;;12883301;22;20053;-70
2023/11/21 21:16:16;;;;;;;5.93;4.57;;;;;;;;;;12884171;22;20026;-70
2023/11/21 21:21:13;;;;;;;5.65;5.05;;;;;;;;;;12884372;22;20363;-71
2023/11/21 21:26:11;;;;;;;5.80;4.63;;;;;;;;;;12886245;22;20029;-70
2023/11/21 21:31:07;;;;;;;8.10;4.38;;;;;;;;;;12884758;22;20046;-71
2023/11/21 21:36:04;;;;;;;5.72;4.40;;;;;;;;;;12885396;22;20022;-71
2023/11/21 21:41:01;;;;;;;4.75;4.13;;;;;;;;;;12883701;22;20019;-70
2023/11/21 21:45:57;;;;;;;10.52;4.63;;;;;;;;;;12876507;22;20022;-67
2023/11/21 21:50:53;;;;;;;5.53;4.20;;;;;;;;;;12884737;22;20015;-67
2023/11/21 21:55:52;;;;;;;5.60;4.03;;;;;;;;;;12889779;22;20084;-68
2023/11/21 22:00:49;;;;;;;6.20;4.32;;;;;;;;;;12881780;22;20056;-68
2023/11/21 22:05:45;;;;;;;6.00;4.30;;;;;;;;;;12890447;22;20029;-68
2023/11/21 22:10:41;;;;;;;5.47;4.65;;;;;;;;;;12888757;22;20026;-69
2023/11/21 22:15:38;;;;;;;7.55;4.57;;;;;;;;;;12888343;22;20018;-69
2023/11/21 22:20:34;;;;;;;5.15;4.53;;;;;;;;;;12887653;22;20034;-69
2023/11/21 22:25:31;;;;;;;6.60;4.13;;;;;;;;;;12889067;22;20072;-69
2023/11/21 22:30:27;;;;;;;7.18;4.80;;;;;;;;;;12888389;22;20072;-68
2023/11/21 22:35:24;;;;;;;5.13;4.53;;;;;;;;;;12887856;22;20026;-68
2023/11/21 22:40:20;;;;;;;6.25;4.47;;;;;;;;;;12887837;22;20095;-68
2023/11/21 22:45:17;;;;;;;5.88;4.53;;;;;;;;;;12881689;22;20064;-68
2023/11/21 22:50:14;;;;;;;4.60;3.70;;;;;;;;;;12887676;22;20015;-68
2023/11/21 22:55:10;;;;;;;9.52;4.85;;;;;;;;;;12888605;22;20025;-69
2023/11/21 23:00:14;;;;;;;5.07;4.25;;;;;;;;;;12882873;22;20022;-68
2023/11/21 23:05:10;;;;;;;5.45;4.57;;;;;;;;;;12886965;22;20015;-68
2023/11/21 23:10:09;;;;;;;5.43;4.47;;;;;;;;;;12887812;22;20049;-68
2023/11/21 23:15:07;;;;;;;5.57;4.20;;;;;;;;;;12888323;22;20029;-67
2023/11/21 23:20:09;;;;;;;4.97;4.47;;;;;;;;;;12887731;22;20347;-68
2023/11/21 23:25:06;;;;;;;7.95;4.95;;;;;;;;;;12888285;22;20093;-68
2023/11/21 23:30:02;;;;;;;5.53;4.70;;;;;;;;;;12887092;22;20070;-68
2023/11/21 23:34:59;;;;;;;6.60;4.78;;;;;;;;;;12888561;22;20130;-68
2023/11/21 23:39:55;;;;;;;9.23;4.93;;;;;;;;;;12860051;22;20022;-67
2023/11/21 23:44:53;;;;;;;5.32;4.70;;;;;;;;;;12886047;22;20065;-66
2023/11/21 23:49:49;;;;;;;7.60;5.35;;;;;;;;;;12881368;22;20027;-67
2023/11/21 23:54:45;;;;;;;6.97;5.13;;;;;;;;;;12885570;22;20019;-69
2023/11/21 23:59:42;;;;;;;6.00;5.05;;;;;;;;;;12886774;22;20027;-69
